createdAt,value
2017-06-08T00:00:01.539Z,12.8
2017-06-08T00:05:01.941Z,12.7
2017-06-08T00:10:01.749Z,12.7
2017-06-08T00:15:01.589Z,12.7
2017-06-08T00:20:01.304Z,12.7
2017-06-08T00:25:02.037Z,12.7
2017-06-08T00:30:01.848Z,12.7
2017-06-08T00:35:02.164Z,12.7
2017-06-08T00:40:01.899Z,12.7
2017-06-08T00:45:01.724Z,12.7
2017-06-08T00:50:01.804Z,12.7
2017-06-08T00:55:01.560Z,12.7
2017-06-08T01:00:01.362Z,12.7
2017-06-08T01:05:01.316Z,12.7
2017-06-08T01:10:02.064Z,12.8
2017-06-08T01:15:01.632Z,12.8
2017-06-08T01:20:01.740Z,12.8
2017-06-08T01:25:01.597Z,12.8
2017-06-08T01:30:01.577Z,12.8
2017-06-08T01:35:01.821Z,12.8
2017-06-08T01:40:01.797Z,12.8
2017-06-08T01:45:01.806Z,12.7
2017-06-08T01:50:02.069Z,12.7
2017-06-08T01:55:01.841Z,12.6
2017-06-08T02:00:02.044Z,12.6
2017-06-08T02:05:01.505Z,12.6
2017-06-08T02:10:01.645Z,12.6
2017-06-08T02:15:01.852Z,12.6
2017-06-08T02:20:01.368Z,12.6
2017-06-08T02:25:01.365Z,12.5
2017-06-08T02:30:01.676Z,12.5
2017-06-08T02:35:02.027Z,12.5
2017-06-08T02:40:01.402Z,12.5
2017-06-08T02:45:01.603Z,12.5
2017-06-08T02:50:01.919Z,12.5
2017-06-08T02:55:02.092Z,12.5
2017-06-08T03:00:01.329Z,12.5
2017-06-08T03:05:02.106Z,12.5
2017-06-08T03:10:01.798Z,12.5
2017-06-08T03:15:01.876Z,12.5
2017-06-08T03:20:01.238Z,12.5
2017-06-08T03:25:02.208Z,12.5
2017-06-08T03:30:01.327Z,12.6
2017-06-08T03:35:01.695Z,12.6
2017-06-08T03:40:02.181Z,12.6
2017-06-08T03:45:01.935Z,12.7
2017-06-08T03:50:02.068Z,12.7
2017-06-08T03:55:01.742Z,12.7
2017-06-08T04:00:01.995Z,12.9
2017-06-08T04:05:01.767Z,12.9
2017-06-08T04:10:01.697Z,13
2017-06-08T04:15:02.088Z,13
2017-06-08T04:20:01.857Z,13
2017-06-08T04:25:01.730Z,13
2017-06-08T04:30:02.014Z,13
2017-06-08T04:35:02.002Z,13
2017-06-08T04:40:02.186Z,13.1
2017-06-08T04:45:01.794Z,13.2
2017-06-08T04:50:01.767Z,13.2
2017-06-08T04:55:01.928Z,13.4
2017-06-08T05:00:01.336Z,13.4
2017-06-08T05:05:01.596Z,13.4
2017-06-08T05:10:01.846Z,13.5
2017-06-08T05:15:01.453Z,13.5
2017-06-08T05:20:01.235Z,13.5
2017-06-08T05:25:02.076Z,13.5
2017-06-08T05:30:01.426Z,13.6
2017-06-08T05:35:01.428Z,13.6
2017-06-08T05:40:01.507Z,13.7
2017-06-08T05:45:01.206Z,13.7
2017-06-08T05:50:02.005Z,13.8
2017-06-08T05:55:01.920Z,13.9
2017-06-08T06:00:01.360Z,14
2017-06-08T06:05:01.810Z,14
2017-06-08T06:10:01.452Z,14.2
2017-06-08T06:15:01.932Z,14.2
2017-06-08T06:20:01.287Z,14.2
2017-06-08T06:25:01.597Z,14.3
2017-06-08T06:30:02.076Z,14.2
2017-06-08T06:35:01.790Z,14.3
2017-06-08T06:40:01.555Z,14.3
2017-06-08T06:45:01.317Z,14.3
2017-06-08T06:50:01.586Z,14.4
2017-06-08T06:55:02.146Z,14.4
2017-06-08T07:00:01.525Z,14.6
2017-06-08T07:05:01.722Z,14.7
2017-06-08T07:10:01.636Z,14.8
2017-06-08T07:15:01.993Z,15
2017-06-08T07:20:01.784Z,15
2017-06-08T07:25:01.821Z,15
2017-06-08T07:30:01.327Z,15
2017-06-08T07:35:01.268Z,15
2017-06-08T07:40:02.039Z,15
2017-06-08T07:45:01.834Z,15
2017-06-08T07:50:02.155Z,15
2017-06-08T07:55:01.794Z,15
2017-06-08T08:00:01.327Z,15
2017-06-08T08:05:01.876Z,15
2017-06-08T08:10:01.686Z,15
2017-06-08T08:15:01.407Z,15
2017-06-08T08:20:01.996Z,14.9
2017-06-08T08:25:02.138Z,14.8
2017-06-08T08:30:01.559Z,14.8
2017-06-08T08:35:01.417Z,15
2017-06-08T08:40:01.297Z,14.9
2017-06-08T08:45:02.076Z,14.9
2017-06-08T08:50:01.242Z,15
2017-06-08T08:55:01.986Z,15
2017-06-08T09:00:01.555Z,15
2017-06-08T09:05:01.744Z,15
2017-06-08T09:10:01.737Z,15
2017-06-08T09:15:01.311Z,15
2017-06-08T09:20:01.474Z,15
2017-06-08T09:25:01.621Z,15
2017-06-08T09:30:02.170Z,15
2017-06-08T09:35:01.827Z,15
2017-06-08T09:40:01.610Z,15
2017-06-08T09:45:01.585Z,15
2017-06-08T09:50:01.244Z,15
2017-06-08T09:55:01.932Z,15
2017-06-08T10:00:01.472Z,15.3
2017-06-08T10:05:01.899Z,15.3
2017-06-08T10:10:01.344Z,15.3
2017-06-08T10:15:01.894Z,15.3
2017-06-08T10:20:01.566Z,15.3
2017-06-08T10:25:01.954Z,15.3
2017-06-08T10:30:01.680Z,15.3
2017-06-08T10:35:01.698Z,15.8
2017-06-08T10:40:01.910Z,16
2017-06-08T10:45:01.762Z,16
2017-06-08T10:50:01.643Z,16.2
2017-06-08T10:55:01.717Z,16.2
2017-06-08T11:00:01.436Z,16.3
2017-06-08T11:05:01.393Z,16.4
2017-06-08T11:10:01.303Z,16.6
2017-06-08T11:15:01.856Z,16.6
2017-06-08T11:20:01.974Z,16.6
2017-06-08T11:25:01.972Z,16.7
2017-06-08T11:30:01.526Z,16.7
2017-06-08T11:35:01.944Z,16.7
2017-06-08T11:40:01.835Z,16.5
2017-06-08T11:45:02.164Z,16.4
2017-06-08T11:50:01.977Z,16.4
2017-06-08T11:55:01.744Z,16.3
2017-06-08T12:00:01.434Z,16.3
2017-06-08T12:05:01.691Z,16.3
2017-06-08T12:10:01.637Z,16.4
2017-06-08T12:15:02.081Z,16.4
2017-06-08T12:20:02.071Z,16.5
2017-06-08T12:25:01.410Z,16.5
2017-06-08T12:30:01.821Z,16.4
2017-06-08T12:35:02.091Z,16.4
2017-06-08T12:40:01.822Z,16.4
2017-06-08T12:45:01.793Z,16.4
2017-06-08T12:50:02.081Z,16.3
2017-06-08T12:55:01.791Z,16.3
2017-06-08T13:00:01.302Z,16.2
2017-06-08T13:05:01.831Z,16.2
2017-06-08T13:10:01.556Z,16.2
2017-06-08T13:15:01.512Z,16.3
2017-06-08T13:20:01.326Z,16.4
2017-06-08T13:25:01.975Z,16.4
2017-06-08T13:30:01.764Z,16.4
2017-06-08T13:35:01.281Z,16.4
2017-06-08T13:40:01.233Z,16.4
2017-06-08T13:45:01.336Z,16.4
2017-06-08T13:50:02.097Z,16.4
2017-06-08T13:55:01.889Z,16.4
2017-06-08T14:00:01.900Z,16.4
2017-06-08T14:05:01.960Z,16.4
2017-06-08T14:10:02.160Z,16.4
2017-06-08T14:15:02.136Z,16.4
2017-06-08T14:20:01.499Z,16.3
2017-06-08T14:25:01.651Z,16.3
2017-06-08T14:30:01.931Z,16.3
2017-06-08T14:35:01.415Z,16.2
2017-06-08T14:40:02.081Z,16.2
2017-06-08T14:45:01.892Z,16.2
2017-06-08T14:50:01.585Z,16.2
2017-06-08T14:55:02.174Z,16.2
2017-06-08T15:00:01.527Z,16.2
2017-06-08T15:05:01.376Z,16.2
2017-06-08T15:10:01.406Z,16.2
2017-06-08T15:15:01.706Z,16.3
2017-06-08T15:20:02.166Z,16.3
2017-06-08T15:25:01.371Z,16.2
2017-06-08T15:30:01.762Z,16.3
2017-06-08T15:35:01.529Z,16.3
2017-06-08T15:40:01.323Z,16.3
2017-06-08T15:45:02.079Z,16.3
2017-06-08T15:50:01.196Z,16.3
2017-06-08T15:55:01.872Z,16.3
2017-06-08T16:00:01.500Z,16.4
2017-06-08T16:05:01.619Z,16.3
2017-06-08T16:10:01.767Z,16.3
2017-06-08T16:15:01.359Z,16.3
2017-06-08T16:20:01.974Z,16.2
2017-06-08T16:25:01.458Z,16.1
2017-06-08T16:30:01.202Z,16
2017-06-08T16:35:01.648Z,16
2017-06-08T16:40:02.205Z,16
2017-06-08T16:45:01.242Z,15.9
2017-06-08T16:50:01.415Z,15.9
2017-06-08T16:55:01.583Z,15.8
2017-06-08T17:00:01.860Z,15.8
2017-06-08T17:05:01.946Z,15.7
2017-06-08T17:10:01.773Z,15.6
2017-06-08T17:15:01.252Z,15.6
2017-06-08T17:20:01.421Z,15.6
2017-06-08T17:25:01.492Z,15.2
2017-06-08T17:30:01.828Z,15
2017-06-08T17:35:01.477Z,15
2017-06-08T17:40:01.658Z,15
2017-06-08T17:45:01.690Z,15
2017-06-08T17:50:02.453Z,15
2017-06-08T17:55:01.468Z,15
2017-06-08T18:00:02.169Z,15
2017-06-08T18:05:01.463Z,15
2017-06-08T18:10:02.229Z,15
2017-06-08T18:15:01.683Z,15
2017-06-08T18:20:01.512Z,15
2017-06-08T18:25:01.812Z,15
2017-06-08T18:30:01.891Z,15
2017-06-08T18:35:01.326Z,15
2017-06-08T18:40:02.055Z,15
2017-06-08T18:45:01.873Z,15
2017-06-08T18:50:02.000Z,15
2017-06-08T18:55:01.802Z,15
2017-06-08T19:00:01.825Z,15
2017-06-08T19:05:02.288Z,15
2017-06-08T19:10:01.695Z,15
2017-06-08T19:15:01.589Z,15
2017-06-08T19:20:01.880Z,15
2017-06-08T19:25:02.143Z,15
2017-06-08T19:30:01.435Z,15
2017-06-08T19:35:01.540Z,15
2017-06-08T19:40:01.899Z,15
2017-06-08T19:45:01.488Z,15
2017-06-08T19:50:01.870Z,15
2017-06-08T19:55:02.051Z,15
2017-06-08T20:00:01.587Z,15
2017-06-08T20:05:01.817Z,14.7
2017-06-08T20:10:02.090Z,14.7
2017-06-08T20:15:01.589Z,14.6
2017-06-08T20:20:01.973Z,14.6
2017-06-08T20:25:01.354Z,14.5
2017-06-08T20:30:01.897Z,14.5
2017-06-08T20:35:01.591Z,14.5
2017-06-08T20:40:01.802Z,14.5
2017-06-08T20:45:01.619Z,14.4
2017-06-08T20:50:01.711Z,14.4
2017-06-08T20:55:02.018Z,14.4
2017-06-08T21:00:01.442Z,14.4
2017-06-08T21:05:01.709Z,14.4
2017-06-08T21:10:01.662Z,14.4
2017-06-08T21:15:01.507Z,14.4
2017-06-08T21:20:02.134Z,14.4
2017-06-08T21:25:02.275Z,14.4
2017-06-08T21:30:01.299Z,14.3
2017-06-08T21:35:02.131Z,14.3
2017-06-08T21:40:01.247Z,14.3
2017-06-08T21:45:01.661Z,14.3
2017-06-08T21:50:01.818Z,14.2
2017-06-08T21:55:02.125Z,14.2
2017-06-08T22:00:01.922Z,14.2
2017-06-08T22:05:01.610Z,14.2
2017-06-08T22:10:01.844Z,14.2
2017-06-08T22:15:02.156Z,14.2
2017-06-08T22:20:01.671Z,14.2
2017-06-08T22:25:01.621Z,14.2
2017-06-08T22:30:02.050Z,14.2
2017-06-08T22:35:01.921Z,14.2
2017-06-08T22:40:01.453Z,14.2
2017-06-08T22:45:01.942Z,14.2
2017-06-08T22:50:01.297Z,14.2
2017-06-08T22:55:02.066Z,14.2
2017-06-08T23:00:02.072Z,14.2
2017-06-08T23:05:01.601Z,14.2
2017-06-08T23:10:01.643Z,14.2
2017-06-08T23:15:01.598Z,14.2
2017-06-08T23:20:01.741Z,14.2
2017-06-08T23:25:01.586Z,14.2
2017-06-08T23:30:01.491Z,14.2
2017-06-08T23:35:01.789Z,14.2
2017-06-08T23:40:01.601Z,14.2
2017-06-08T23:45:01.511Z,14.2
2017-06-08T23:50:01.788Z,14.2
2017-06-08T23:55:01.589Z,14.2
